Terminal Aerodrome Forecast
Issued by NWS

Home | Current Version | Previous Version | Text Only | Print | Product List | Glossary On
Versions: 1 2 3 4 5 6 7 8 9 10 11 12 13 14 15 16 17 18 19 20 21 22 23
000
FTUS43 KSGF 200300 AAA
TAFJLN
TAF AMD
KJLN 200316Z 2003/2024 14004KT 6SM BR FEW035
     FM200600 15004KT 4SM BR SCT030
     FM201500 23010KT P6SM SCT250=

USA.gov is the U.S. government's official web portal to all federal, state and local government web resources and services.